Time;durP1;ratioP1;P1;durP2;ratioP2;P2;SDS_P1;SDS_P2;PMS_P1;PMS_P2;Temp;Humidity;BMP_temperature;BMP_pressure;BME280_temperature;BME280_humidity;BME280_pressure;Samples;Min_cycle;Max_cycle;Signal;HPM_P1;HPM_P2
2023/01/28 00:00:53;;;;;;;3.80;0.80;;;;;;;1.88;71.74;102097.13;106523;1258;61253;-77
2023/01/28 00:03:21;;;;;;;2.90;0.90;;;;;;;1.88;71.93;102099.42;106691;1259;75946;-77
2023/01/28 00:05:47;;;;;;;3.60;0.90;;;;;;;1.86;72.08;102092.55;106867;1262;70936;-78
2023/01/28 00:08:14;;;;;;;2.20;0.70;;;;;;;1.81;71.58;102092.27;106692;1257;71959;-76
2023/01/28 00:10:44;;;;;;;3.10;1.10;;;;;;;1.78;71.76;102098.52;107030;1257;61157;-77
2023/01/28 00:13:13;;;;;;;3.40;1.00;;;;;;;1.77;72.18;102095.64;106920;1257;61584;-77
2023/01/28 00:15:40;;;;;;;2.30;1.00;;;;;;;1.76;72.03;102094.47;106855;1257;73497;-77
2023/01/28 00:18:07;;;;;;;2.80;0.90;;;;;;;1.76;72.26;102094.11;106589;1260;71208;-77
2023/01/28 00:20:34;;;;;;;3.60;1.10;;;;;;;1.77;72.19;102094.92;106616;1264;72029;-77
2023/01/28 00:23:01;;;;;;;3.60;1.50;;;;;;;1.76;71.96;102097.62;106602;1260;60236;-77
2023/01/28 00:25:28;;;;;;;2.80;0.90;;;;;;;1.76;72.21;102099.54;106536;1260;61608;-78
2023/01/28 00:27:55;;;;;;;2.70;0.90;;;;;;;1.76;72.09;102101.30;106700;1257;73333;-78
2023/01/28 00:30:22;;;;;;;3.10;0.90;;;;;;;1.75;71.98;102099.73;107078;1258;71055;-77
2023/01/28 00:32:49;;;;;;;3.20;0.80;;;;;;;1.70;71.28;102100.20;106721;1263;72424;-77
2023/01/28 00:35:15;;;;;;;2.70;0.90;;;;;;;1.66;71.35;102095.52;106769;1260;61894;-77
2023/01/28 00:37:46;;;;;;;1.80;0.60;;;;;;;1.64;71.75;102102.29;106565;1258;62528;-76
2023/01/28 00:40:13;;;;;;;3.30;0.70;;;;;;;1.60;71.96;102103.34;106978;1259;73445;-75
2023/01/28 00:42:40;;;;;;;3.20;0.70;;;;;;;1.57;71.90;102104.02;107063;1259;69694;-77
2023/01/28 00:45:07;;;;;;;2.40;0.80;;;;;;;1.57;72.13;102100.20;106962;1262;71260;-78
2023/01/28 00:47:34;;;;;;;2.70;0.80;;;;;;;1.60;72.41;102102.30;107140;1259;60913;-78
2023/01/28 00:50:01;;;;;;;2.90;0.70;;;;;;;1.59;72.20;102103.02;106587;1259;62964;-79
2023/01/28 00:52:28;;;;;;;3.10;0.70;;;;;;;1.58;71.83;102096.50;106695;1257;73742;-76
2023/01/28 00:54:56;;;;;;;4.20;0.70;;;;;;;1.56;71.99;102097.83;106762;1258;70822;-78
2023/01/28 00:57:23;;;;;;;3.60;0.90;;;;;;;1.56;72.15;102099.39;106724;1260;72404;-80
2023/01/28 00:59:50;;;;;;;3.60;1.20;;;;;;;1.58;72.13;102098.57;106546;1265;62908;-79
2023/01/28 01:02:17;;;;;;;3.80;1.20;;;;;;;1.59;72.39;102098.35;106776;1259;61116;-78
2023/01/28 01:04:53;;;;;;;3.10;0.90;;;;;;;1.57;71.61;102101.94;106969;1263;74392;-78
2023/01/28 01:07:40;;;;;;;2.30;0.70;;;;;;;1.54;71.79;102097.06;106869;1261;71125;-79
2023/01/28 01:10:10;;;;;;;2.40;0.80;;;;;;;1.51;71.59;102097.73;106484;1263;72580;-78
2023/01/28 01:12:41;;;;;;;2.30;0.80;;;;;;;1.45;71.59;102101.54;106487;1260;62518;-78
2023/01/28 01:15:09;;;;;;;2.30;0.70;;;;;;;1.43;71.80;102101.11;106972;1257;60640;-78
2023/01/28 01:17:37;;;;;;;2.50;1.00;;;;;;;1.44;72.14;102099.48;106801;1259;73874;-77
2023/01/28 01:20:08;;;;;;;2.80;0.80;;;;;;;1.42;71.88;102098.36;106566;1266;70191;-79
2023/01/28 01:22:38;;;;;;;2.90;0.70;;;;;;;1.41;72.41;102097.75;106901;1259;73694;-78
2023/01/28 01:25:11;;;;;;;3.40;0.80;;;;;;;1.41;72.68;102098.45;106983;1264;61633;-79
2023/01/28 01:27:39;;;;;;;3.00;0.90;;;;;;;1.43;72.63;102094.48;106822;1259;61324;-78
2023/01/28 01:30:07;;;;;;;2.90;1.00;;;;;;;1.46;72.56;102092.79;106617;1258;74702;-78
2023/01/28 01:32:35;;;;;;;3.20;0.80;;;;;;;1.45;72.53;102090.89;106601;1259;70312;-78
2023/01/28 01:35:05;;;;;;;3.50;1.20;;;;;;;1.44;72.55;102087.98;106590;1264;71467;-78
2023/01/28 01:37:33;;;;;;;7.50;2.50;;;;;;;1.45;73.05;102092.67;106512;1264;61284;-77
2023/01/28 01:40:03;;;;;;;7.80;3.00;;;;;;;1.44;72.93;102095.67;106603;1260;61246;-78
2023/01/28 01:42:34;;;;;;;8.00;3.20;;;;;;;1.40;72.50;102100.38;106554;1259;74699;-78
2023/01/28 01:45:07;;;;;;;4.90;1.90;;;;;;;1.36;72.79;102097.83;106590;1260;71273;-77
2023/01/28 01:47:44;;;;;;;4.30;1.30;;;;;;;1.32;72.67;102101.14;106402;1266;70471;-77
2023/01/28 01:50:42;;;;;;;2.80;1.00;;;;;;;1.30;72.26;102102.65;106843;1262;61397;-79
2023/01/28 01:53:15;;;;;;;2.60;0.90;;;;;;;1.29;72.13;102103.42;106920;1261;61156;-78
2023/01/28 01:55:46;;;;;;;3.60;0.80;;;;;;;1.29;72.30;102107.27;106751;1260;73369;-78
2023/01/28 01:58:17;;;;;;;2.80;0.80;;;;;;;1.30;72.23;102106.52;106852;1259;68776;-78
2023/01/28 02:00:45;;;;;;;3.50;1.00;;;;;;;1.35;72.37;102110.25;106760;1259;71218;-79
2023/01/28 02:03:14;;;;;;;4.70;1.80;;;;;;;1.40;72.78;102110.14;106640;1259;61826;-78
2023/01/28 02:05:41;;;;;;;4.10;0.90;;;;;;;1.42;71.78;102114.95;106640;1263;61318;-77
2023/01/28 02:08:20;;;;;;;3.80;1.30;;;;;;;1.40;71.91;102117.81;106430;1260;72828;-78
2023/01/28 02:11:01;;;;;;;3.20;1.10;;;;;;;1.35;70.36;102116.89;107704;1259;70074;-76
2023/01/28 02:13:34;;;;;;;2.10;0.90;;;;;;;1.32;70.19;102118.40;108817;1259;71151;-77
2023/01/28 02:16:02;;;;;;;3.60;1.00;;;;;;;1.31;69.64;102121.44;106120;1262;61162;-75
2023/01/28 02:18:30;;;;;;;3.10;1.20;;;;;;;1.30;70.30;102123.95;105878;1264;62058;-78
2023/01/28 02:21:24;;;;;;;4.00;0.90;;;;;;;1.31;70.54;102121.23;105888;1265;75602;-76
2023/01/28 02:24:29;;;;;;;4.20;1.00;;;;;;;1.33;70.93;102125.87;106287;1259;69791;-78
2023/01/28 02:27:25;;;;;;;2.60;0.70;;;;;;;1.31;70.69;102125.98;105974;1263;71338;-77
2023/01/28 02:29:52;;;;;;;4.70;1.30;;;;;;;1.27;70.62;102125.85;105984;1262;61538;-78
2023/01/28 02:32:50;;;;;;;4.40;1.20;;;;;;;1.22;70.48;102128.33;106200;1262;61108;-81
2023/01/28 02:36:02;;;;;;;1.80;0.70;;;;;;;1.20;71.19;102128.59;108157;1259;72659;-76
2023/01/28 02:38:33;;;;;;;2.70;0.80;;;;;;;1.18;71.35;102125.75;108816;1258;71815;-77
2023/01/28 02:41:06;;;;;;;4.20;1.10;;;;;;;1.17;71.35;102123.88;107660;1259;71074;-77
2023/01/28 02:44:01;;;;;;;4.90;1.50;;;;;;;1.19;71.76;102115.08;106380;1259;62060;-77
2023/01/28 02:49:29;;;;;;;8.80;3.30;;;;;;;1.15;71.37;102114.60;106040;1262;75333;-77
2023/01/28 02:52:09;;;;;;;4.30;1.50;;;;;;;1.13;71.65;102110.16;106058;1260;69992;-77
2023/01/28 02:54:52;;;;;;;5.00;1.50;;;;;;;1.12;71.57;102107.79;106356;1258;71562;-77
2023/01/28 02:57:40;;;;;;;7.40;2.60;;;;;;;1.11;72.10;102103.80;106772;1260;61131;-78
2023/01/28 03:00:15;;;;;;;3.90;1.20;;;;;;;1.12;72.01;102098.17;106783;1260;61139;-77
2023/01/28 03:02:49;;;;;;;3.70;1.40;;;;;;;1.13;71.62;102100.45;106486;1263;76141;-77
2023/01/28 03:05:21;;;;;;;4.50;1.20;;;;;;;1.13;71.96;102101.44;105970;1263;71040;-78
2023/01/28 03:07:56;;;;;;;2.70;0.90;;;;;;;1.15;72.07;102106.75;106483;1263;71487;-76
2023/01/28 03:10:25;;;;;;;2.50;0.80;;;;;;;1.13;71.80;102104.03;106749;1260;61618;-78
2023/01/28 03:38:54;;;;;;;1.90;0.60;;;;;;;1.01;70.80;102094.09;106081;1263;61344;-78
2023/01/28 03:41:25;;;;;;;2.00;0.60;;;;;;;0.97;71.20;102094.10;106194;1259;61858;-77
2023/01/28 03:43:53;;;;;;;1.90;0.70;;;;;;;0.97;71.64;102097.36;106068;1258;74457;-76
2023/01/28 03:46:20;;;;;;;2.10;0.80;;;;;;;0.98;71.48;102100.10;105951;1263;305766;-77
2023/01/28 03:48:50;;;;;;;1.50;0.70;;;;;;;0.96;71.23;102097.96;106064;1260;71513;-78
2023/01/28 03:51:17;;;;;;;3.20;0.70;;;;;;;0.89;70.46;102099.02;105977;1260;61348;-76
2023/01/28 03:53:44;;;;;;;2.30;0.70;;;;;;;0.83;69.30;102103.33;106268;1262;61731;-77
2023/01/28 03:56:17;;;;;;;1.90;0.70;;;;;;;0.82;70.06;102104.93;105964;1259;72254;-77
2023/01/28 03:58:55;;;;;;;3.20;0.90;;;;;;;0.83;70.51;102104.39;105786;1262;71257;-79
2023/01/28 04:01:23;;;;;;;1.80;0.60;;;;;;;0.84;70.22;102108.52;105961;1260;73780;-77
2023/01/28 04:03:53;;;;;;;3.00;1.00;;;;;;;0.83;69.91;102105.95;105881;1260;61624;-81
2023/01/28 04:06:25;;;;;;;3.20;0.80;;;;;;;0.85;70.43;102108.63;106145;1262;61234;-76
2023/01/28 04:08:53;;;;;;;2.80;0.60;;;;;;;0.88;70.42;102111.81;105919;1263;73505;-78
2023/01/28 04:11:24;;;;;;;2.70;0.90;;;;;;;0.87;70.46;102112.89;106620;1260;69824;-77
2023/01/28 04:13:54;;;;;;;3.40;1.00;;;;;;;0.85;70.53;102113.70;105766;1264;72794;-78
2023/01/28 04:16:24;;;;;;;3.90;0.90;;;;;;;0.83;69.66;102118.14;105713;1259;61214;-78
2023/01/28 04:18:51;;;;;;;2.50;0.90;;;;;;;0.81;69.44;102123.10;106089;1262;61270;-78
2023/01/28 04:21:18;;;;;;;2.10;0.80;;;;;;;0.80;69.81;102124.89;105950;1266;74528;-78
2023/01/28 04:23:45;;;;;;;2.30;0.90;;;;;;;0.78;70.07;102121.66;106124;1261;70740;-77
2023/01/28 04:26:12;;;;;;;2.40;0.90;;;;;;;0.76;70.09;102127.69;106166;1258;72673;-77
2023/01/28 04:28:40;;;;;;;2.30;0.70;;;;;;;0.74;69.81;102132.14;106293;1261;61366;-78
2023/01/28 04:31:07;;;;;;;4.10;1.60;;;;;;;0.73;70.19;102129.45;105783;1261;61358;-77
2023/01/28 04:33:36;;;;;;;2.60;1.40;;;;;;;0.72;70.37;102132.60;106243;1263;75075;-76
2023/01/28 04:36:04;;;;;;;3.40;1.60;;;;;;;0.71;70.53;102135.45;105980;1262;69966;-77
2023/01/28 04:38:33;;;;;;;2.60;1.10;;;;;;;0.70;70.60;102144.35;106004;1262;71310;-78
2023/01/28 04:41:01;;;;;;;3.50;1.20;;;;;;;0.69;70.71;102143.89;105989;1261;61356;-76
2023/01/28 04:43:28;;;;;;;3.00;1.10;;;;;;;0.69;70.87;102145.44;106194;1260;61282;-77
2023/01/28 04:45:55;;;;;;;2.20;0.80;;;;;;;0.69;70.40;102145.83;106512;1262;74723;-77
2023/01/28 04:48:23;;;;;;;2.30;1.10;;;;;;;0.68;70.72;102145.17;105748;1261;70102;-77
2023/01/28 04:50:58;;;;;;;2.50;1.10;;;;;;;0.69;70.68;102147.06;105961;1260;71460;-79
2023/01/28 04:53:25;;;;;;;2.30;0.90;;;;;;;0.70;71.08;102141.55;106135;1262;61286;-77
2023/01/28 04:55:55;;;;;;;3.60;1.40;;;;;;;0.74;71.28;102144.86;106047;1264;61248;-77
2023/01/28 04:58:24;;;;;;;2.60;1.10;;;;;;;0.78;71.54;102143.79;105769;1261;73968;-76
2023/01/28 05:00:55;;;;;;;2.90;1.10;;;;;;;0.80;71.13;102144.20;105836;1264;72429;-76
2023/01/28 05:03:23;;;;;;;3.90;0.90;;;;;;;0.80;71.05;102149.06;106434;1261;70684;-77
2023/01/28 05:05:53;;;;;;;1.40;0.70;;;;;;;0.76;70.49;102153.30;105662;1264;61472;-77
2023/01/28 05:08:20;;;;;;;3.10;0.90;;;;;;;0.71;70.07;102151.96;105767;1264;62744;-76
2023/01/28 05:10:50;;;;;;;3.90;0.90;;;;;;;0.67;69.14;102151.13;105842;1259;73155;-78
2023/01/28 05:13:17;;;;;;;3.70;0.90;;;;;;;0.63;68.53;102144.53;106030;1260;72203;-77
2023/01/28 05:15:49;;;;;;;2.30;0.80;;;;;;;0.61;68.64;102147.92;105825;1260;71233;-77
2023/01/28 05:18:19;;;;;;;3.10;1.00;;;;;;;0.61;69.10;102147.95;105891;1261;61254;-78
2023/01/28 05:20:46;;;;;;;2.40;0.80;;;;;;;0.61;69.46;102146.52;106026;1258;61981;-77
2023/01/28 05:23:14;;;;;;;4.10;0.90;;;;;;;0.64;69.72;102147.46;106357;1259;75366;-77
2023/01/28 05:25:41;;;;;;;2.10;0.70;;;;;;;0.67;69.80;102150.43;105845;1260;69753;-78
2023/01/28 05:28:08;;;;;;;1.90;0.80;;;;;;;0.66;69.84;102148.55;105986;1262;72399;-75
2023/01/28 05:30:36;;;;;;;1.90;0.80;;;;;;;0.67;70.05;102150.08;105753;1260;61976;-77
2023/01/28 05:33:03;;;;;;;3.10;1.00;;;;;;;0.67;70.43;102144.67;106123;1260;61263;-76
2023/01/28 05:35:35;;;;;;;2.00;0.90;;;;;;;0.66;70.22;102145.11;105819;1264;74546;-77
2023/01/28 05:38:05;;;;;;;2.20;0.80;;;;;;;0.61;69.72;102147.41;106061;1261;71279;-77
2023/01/28 05:40:32;;;;;;;3.60;1.00;;;;;;;0.58;70.18;102143.73;106066;1258;72546;-77
2023/01/28 05:42:59;;;;;;;3.50;1.40;;;;;;;0.58;70.62;102142.71;106718;1261;62650;-78
2023/01/28 05:45:27;;;;;;;4.70;1.10;;;;;;;0.60;70.51;102138.40;105825;1263;61137;-76
2023/01/28 05:47:54;;;;;;;3.10;0.80;;;;;;;0.59;69.60;102134.95;106086;1262;73541;-77
2023/01/28 05:50:21;;;;;;;2.10;0.70;;;;;;;0.56;68.57;102142.26;105997;1262;69623;-75
2023/01/28 05:52:48;;;;;;;2.20;0.90;;;;;;;0.57;69.10;102141.19;106060;1261;71599;-77
2023/01/28 05:55:15;;;;;;;2.20;0.90;;;;;;;0.62;69.35;102138.69;105987;1259;62434;-75
2023/01/28 05:57:44;;;;;;;3.70;0.80;;;;;;;0.67;69.28;102137.02;106469;1261;61315;-76
2023/01/28 06:00:13;;;;;;;2.70;0.60;;;;;;;0.68;68.73;102137.15;106029;1261;74471;-79
2023/01/28 06:02:42;;;;;;;2.10;0.60;;;;;;;0.67;68.55;102135.14;105785;1260;71216;-78
2023/01/28 06:05:12;;;;;;;2.40;0.90;;;;;;;0.65;68.71;102140.98;106079;1262;71603;-78
2023/01/28 06:07:39;;;;;;;2.90;0.90;;;;;;;0.64;68.80;102142.77;106017;1261;61982;-77
2023/01/28 06:10:06;;;;;;;3.50;0.90;;;;;;;0.63;69.10;102138.96;105899;1260;61331;-78
2023/01/28 06:12:33;;;;;;;2.70;0.90;;;;;;;0.66;69.46;102138.29;106175;1259;74367;-78
2023/01/28 06:15:00;;;;;;;3.10;1.00;;;;;;;0.70;69.12;102144.05;106642;1260;71396;-78
2023/01/28 06:17:28;;;;;;;2.20;0.90;;;;;;;0.70;69.13;102145.58;106148;1259;71186;-77
2023/01/28 06:19:55;;;;;;;2.10;0.90;;;;;;;0.67;69.05;102143.29;105685;1264;61261;-78
2023/01/28 06:22:25;;;;;;;2.70;0.80;;;;;;;0.65;69.26;102145.28;105884;1262;61257;-77
2023/01/28 06:24:52;;;;;;;2.50;1.00;;;;;;;0.63;69.27;102139.30;106202;1261;74478;-77
2023/01/28 06:27:19;;;;;;;2.50;0.90;;;;;;;0.63;69.46;102139.81;106058;1261;70910;-77
2023/01/28 06:29:47;;;;;;;3.20;1.00;;;;;;;0.64;69.54;102144.67;105808;1259;72358;-77
2023/01/28 06:32:16;;;;;;;2.40;1.00;;;;;;;0.63;69.27;102145.58;106323;1259;61456;-77
2023/01/28 06:34:44;;;;;;;4.00;1.10;;;;;;;0.62;68.99;102149.64;106255;1259;62393;-78
2023/01/28 06:37:14;;;;;;;2.80;0.90;;;;;;;0.60;69.02;102152.16;105937;1260;74880;-78
2023/01/28 06:39:42;;;;;;;3.60;1.00;;;;;;;0.57;68.36;102153.17;106014;1260;69787;-78
2023/01/28 06:42:08;;;;;;;2.70;0.90;;;;;;;0.54;67.80;102150.05;106065;1259;71498;-78
2023/01/28 06:44:35;;;;;;;3.30;1.00;;;;;;;0.56;68.29;102150.98;105989;1261;61257;-78
2023/01/28 06:47:03;;;;;;;2.00;0.80;;;;;;;0.57;67.89;102153.02;106716;1259;60698;-78
2023/01/28 06:49:32;;;;;;;2.70;0.70;;;;;;;0.56;67.53;102153.05;105961;1261;74703;-77
2023/01/28 06:52:02;;;;;;;2.90;0.70;;;;;;;0.56;67.57;102152.01;106334;1261;71265;-78
2023/01/28 06:54:31;;;;;;;2.30;0.70;;;;;;;0.59;67.73;102155.02;106034;1259;72738;-77
2023/01/28 06:57:01;;;;;;;1.80;0.70;;;;;;;0.62;68.18;102150.68;106184;1259;61378;-77
2023/01/28 06:59:28;;;;;;;3.90;1.20;;;;;;;0.62;67.76;102152.23;106661;1258;61917;-77
2023/01/28 07:01:55;;;;;;;1.80;0.70;;;;;;;0.62;67.68;102156.59;108835;1260;74764;-78
2023/01/28 07:04:23;;;;;;;2.60;0.80;;;;;;;0.62;68.04;102155.56;108021;1259;70914;-78
2023/01/28 07:06:50;;;;;;;3.10;0.80;;;;;;;0.63;67.92;102158.83;106025;1259;71131;-77
2023/01/28 07:09:17;;;;;;;2.50;0.80;;;;;;;0.60;67.56;102155.98;107045;1260;61254;-76
2023/01/28 07:11:44;;;;;;;2.90;0.90;;;;;;;0.57;67.52;102152.67;106624;1260;61369;-77
2023/01/28 07:14:14;;;;;;;1.90;0.70;;;;;;;0.55;67.68;102153.09;105772;1260;74456;-77
2023/01/28 07:16:41;;;;;;;1.80;0.80;;;;;;;0.54;67.46;102151.40;105977;1260;69776;-77
2023/01/28 07:19:08;;;;;;;2.70;0.80;;;;;;;0.51;67.28;102155.71;105969;1261;72448;-78
2023/01/28 07:21:39;;;;;;;3.70;0.80;;;;;;;0.50;67.18;102153.33;106802;1259;61357;-79
2023/01/28 07:24:06;;;;;;;2.20;1.00;;;;;;;0.51;67.24;102154.36;105760;1260;61192;-76
2023/01/28 07:26:33;;;;;;;3.40;0.90;;;;;;;0.53;67.20;102150.41;106177;1261;74737;-78
2023/01/28 07:29:00;;;;;;;2.50;0.70;;;;;;;0.55;67.25;102151.16;106095;1262;70357;-77
2023/01/28 07:31:27;;;;;;;1.90;0.70;;;;;;;0.58;67.06;102155.57;105809;1260;71701;-77
2023/01/28 07:34:01;;;;;;;2.40;0.70;;;;;;;0.59;67.32;102163.69;105767;1267;61305;-77
2023/01/28 07:36:35;;;;;;;2.50;0.80;;;;;;;0.62;67.23;102162.53;105983;1260;61239;-77
2023/01/28 07:39:03;;;;;;;2.50;0.70;;;;;;;0.65;67.28;102167.77;106418;1260;73133;-77
2023/01/28 07:41:30;;;;;;;2.40;0.90;;;;;;;0.68;67.49;102165.71;106334;1261;72526;-78
2023/01/28 07:43:57;;;;;;;3.20;0.90;;;;;;;0.71;67.50;102162.98;105747;1260;71375;-79
2023/01/28 07:46:24;;;;;;;2.10;0.70;;;;;;;0.71;67.67;102172.15;106257;1259;61814;-78
2023/01/28 07:48:51;;;;;;;1.60;0.80;;;;;;;0.72;68.01;102175.43;105992;1260;61398;-77
2023/01/28 07:51:18;;;;;;;2.90;0.80;;;;;;;0.70;67.93;102172.42;105813;1261;74585;-80
2023/01/28 07:53:45;;;;;;;1.90;0.80;;;;;;;0.65;67.72;102169.50;105899;1260;70960;-76
2023/01/28 07:56:22;;;;;;;4.20;0.90;;;;;;;0.62;67.43;102170.16;106401;1259;73733;-80
2023/01/28 07:58:49;;;;;;;1.50;0.80;;;;;;;0.59;66.97;102172.21;106220;1258;61237;-78
2023/01/28 08:01:17;;;;;;;2.80;0.90;;;;;;;0.61;67.63;102175.98;106228;1262;61152;-78
2023/01/28 08:03:44;;;;;;;2.90;1.00;;;;;;;0.67;68.20;102180.73;106203;1260;73408;-80
2023/01/28 08:06:11;;;;;;;3.40;1.00;;;;;;;0.70;67.35;102183.39;106570;1262;68958;-80
2023/01/28 08:08:40;;;;;;;2.00;0.90;;;;;;;0.71;66.80;102183.83;106611;1259;71563;-79
2023/01/28 08:11:10;;;;;;;2.90;1.20;;;;;;;0.73;66.94;102183.71;106074;1260;62438;-79
2023/01/28 08:13:37;;;;;;;3.10;1.40;;;;;;;0.78;67.37;102177.05;106414;1259;61344;-79
2023/01/28 08:16:05;;;;;;;3.20;1.30;;;;;;;0.83;66.67;102183.80;106742;1259;73599;-80
2023/01/28 08:18:32;;;;;;;4.00;1.30;;;;;;;0.86;66.59;102190.96;106969;1261;69688;-78
2023/01/28 08:20:59;;;;;;;4.10;1.70;;;;;;;0.89;66.75;102191.66;108156;1259;70772;-79
2023/01/28 08:23:29;;;;;;;2.60;1.10;;;;;;;0.93;66.96;102195.98;107472;1261;61024;-79
2023/01/28 08:25:57;;;;;;;2.90;1.30;;;;;;;0.98;66.85;102199.92;107065;1259;61287;-80
2023/01/28 08:28:25;;;;;;;2.70;1.10;;;;;;;1.02;66.17;102205.52;107547;1259;75224;-80
2023/01/28 08:30:52;;;;;;;2.60;1.00;;;;;;;1.07;66.00;102208.91;107431;1260;71400;-78
2023/01/28 08:33:20;;;;;;;3.50;1.20;;;;;;;1.16;65.78;102212.29;106701;1263;71504;-79
2023/01/28 08:35:48;;;;;;;3.20;1.10;;;;;;;1.25;65.76;102222.17;106437;1260;62658;-80
2023/01/28 08:38:16;;;;;;;3.60;1.20;;;;;;;1.28;64.67;102223.39;108124;1261;60080;-79
2023/01/28 08:40:43;;;;;;;3.40;1.30;;;;;;;1.29;64.69;102218.29;107034;1258;74561;-78
2023/01/28 08:43:11;;;;;;;2.20;1.30;;;;;;;1.33;64.88;102215.84;107408;1259;71780;-80
2023/01/28 08:45:41;;;;;;;4.10;1.40;;;;;;;1.41;65.17;102220.99;106804;1260;72474;-80
2023/01/28 08:48:13;;;;;;;3.00;1.30;;;;;;;1.48;64.86;102220.95;106517;1259;61368;-79
2023/01/28 08:50:40;;;;;;;6.90;3.40;;;;;;;1.53;64.53;102226.83;106721;1261;61187;-80
2023/01/28 08:53:11;;;;;;;5.30;3.20;;;;;;;1.51;64.33;102231.11;106601;1259;73921;-79
2023/01/28 08:55:38;;;;;;;3.80;1.50;;;;;;;1.53;64.93;102231.16;106630;1258;71098;-78
2023/01/28 08:58:11;;;;;;;2.90;1.20;;;;;;;1.55;64.11;102237.34;106650;1259;72428;-79
2023/01/28 09:00:39;;;;;;;2.40;1.50;;;;;;;1.50;63.35;102242.46;106592;1259;61497;-79
2023/01/28 09:03:06;;;;;;;3.10;1.50;;;;;;;1.47;63.47;102243.52;107002;1260;61136;-79
2023/01/28 09:05:37;;;;;;;3.70;1.50;;;;;;;1.51;64.18;102245.77;106732;1260;73816;-80
2023/01/28 09:08:11;;;;;;;4.00;1.60;;;;;;;1.59;64.33;102254.38;106779;1260;69684;-78
2023/01/28 09:10:40;;;;;;;4.90;2.20;;;;;;;1.70;64.11;102249.16;106767;1258;73654;-78
2023/01/28 09:13:13;;;;;;;4.10;1.90;;;;;;;1.82;63.98;102247.81;106884;1259;61282;-78
2023/01/28 09:15:41;;;;;;;3.70;1.60;;;;;;;1.93;64.12;102253.54;106782;1258;61326;-77
2023/01/28 09:18:08;;;;;;;4.00;1.90;;;;;;;1.97;63.48;102255.95;106897;1259;72772;-77
2023/01/28 09:20:36;;;;;;;3.30;1.70;;;;;;;1.96;62.93;102263.84;108349;1259;69937;-76
2023/01/28 09:23:04;;;;;;;3.90;2.00;;;;;;;1.94;63.08;102266.76;107434;1259;71541;-77
2023/01/28 09:25:31;;;;;;;3.20;1.70;;;;;;;1.91;63.05;102270.02;107963;1259;61064;-79
2023/01/28 09:27:58;;;;;;;5.00;1.60;;;;;;;1.84;62.74;102279.63;107207;1259;61147;-78
2023/01/28 09:30:26;;;;;;;5.90;2.60;;;;;;;1.74;62.79;102294.10;108112;1259;73471;-79
2023/01/28 09:32:54;;;;;;;3.80;1.50;;;;;;;1.68;63.11;102290.96;106273;1260;70064;-78
2023/01/28 09:35:21;;;;;;;4.30;1.60;;;;;;;1.60;63.17;102292.92;106584;1260;70992;-79
2023/01/28 09:37:48;;;;;;;3.60;1.40;;;;;;;1.53;63.07;102299.17;106486;1259;61351;-77
2023/01/28 09:40:19;;;;;;;2.80;1.20;;;;;;;1.48;63.44;102295.77;106288;1259;61188;-78
2023/01/28 09:42:57;;;;;;;3.50;1.10;;;;;;;1.43;63.77;102294.43;106163;1263;74200;-78
2023/01/28 09:45:41;;;;;;;2.40;1.00;;;;;;;1.41;63.70;102296.80;106467;1259;69746;-79
2023/01/28 09:48:15;;;;;;;2.60;1.00;;;;;;;1.35;63.62;102297.43;106534;1260;74875;-80
2023/01/28 09:50:47;;;;;;;3.10;1.40;;;;;;;1.32;63.58;102304.06;106544;1260;61372;-79
2023/01/28 09:53:30;;;;;;;3.20;1.10;;;;;;;1.31;64.04;102303.91;106366;1264;61257;-79
2023/01/28 09:56:01;;;;;;;4.10;1.20;;;;;;;1.30;64.40;102294.73;106232;1260;73294;-76
2023/01/28 09:58:29;;;;;;;3.60;1.20;;;;;;;1.35;64.54;102285.78;106388;1260;68663;-77
2023/01/28 10:01:04;;;;;;;3.60;1.10;;;;;;;1.36;64.19;102291.64;106212;1260;72514;-81
2023/01/28 10:03:44;;;;;;;3.60;1.30;;;;;;;1.34;64.12;102300.13;106682;1260;61360;-78
2023/01/28 10:06:20;;;;;;;4.10;1.40;;;;;;;1.27;64.29;102311.27;106449;1260;61128;-79
2023/01/28 10:09:06;;;;;;;3.30;1.50;;;;;;;1.22;64.55;102305.58;106569;1259;74921;-77
2023/01/28 10:11:41;;;;;;;3.20;1.10;;;;;;;1.15;64.47;102303.47;106549;1259;71917;-77
2023/01/28 10:14:20;;;;;;;4.30;1.50;;;;;;;1.11;64.66;102304.34;106315;1258;72670;-77
2023/01/28 10:16:56;;;;;;;2.70;1.00;;;;;;;1.14;65.24;102298.81;106432;1259;61269;-79
2023/01/28 10:19:32;;;;;;;4.10;1.20;;;;;;;1.18;65.44;102296.51;106110;1266;61378;-78
2023/01/28 10:22:02;;;;;;;2.90;1.20;;;;;;;1.21;65.28;102294.11;106403;1259;73215;-78
2023/01/28 10:24:37;;;;;;;3.00;1.50;;;;;;;1.18;64.79;102291.63;106812;1258;71966;-79
2023/01/28 10:27:20;;;;;;;2.50;1.30;;;;;;;1.18;64.83;102293.06;106488;1259;72515;-78
2023/01/28 10:29:49;;;;;;;3.30;1.70;;;;;;;1.16;64.70;102292.44;106399;1262;61226;-79
2023/01/28 10:32:27;;;;;;;3.60;1.60;;;;;;;1.14;64.46;102279.81;106297;1259;61366;-78
2023/01/28 10:34:58;;;;;;;4.40;1.50;;;;;;;1.09;64.60;102277.60;106477;1258;72735;-78
2023/01/28 10:37:26;;;;;;;2.80;1.40;;;;;;;1.09;64.81;102275.23;106378;1260;71360;-78
2023/01/28 10:39:57;;;;;;;2.90;1.70;;;;;;;1.12;65.09;102277.80;106452;1258;72506;-78
2023/01/28 10:42:30;;;;;;;5.10;1.70;;;;;;;1.22;65.11;102278.42;106751;1260;61786;-76
2023/01/28 10:45:06;;;;;;;2.70;1.70;;;;;;;1.30;64.26;102278.36;106660;1259;61620;-79
2023/01/28 10:47:42;;;;;;;3.50;1.70;;;;;;;1.38;63.27;102280.39;106247;1260;72409;-80
2023/01/28 10:50:17;;;;;;;2.50;1.60;;;;;;;1.43;63.04;102280.81;106450;1259;70907;-78
2023/01/28 10:52:59;;;;;;;3.80;2.20;;;;;;;1.52;63.60;102285.61;106545;1258;72489;-78
2023/01/28 10:55:34;;;;;;;4.30;1.80;;;;;;;1.57;62.96;102287.44;106394;1258;61208;-78
2023/01/28 10:58:04;;;;;;;3.30;1.80;;;;;;;1.59;62.93;102288.04;107238;1258;61192;-79
2023/01/28 11:00:35;;;;;;;3.90;1.80;;;;;;;1.57;63.27;102287.28;106269;1264;74325;-79
2023/01/28 11:03:03;;;;;;;4.60;1.90;;;;;;;1.54;62.78;102288.11;106128;1260;71391;-78
2023/01/28 11:05:30;;;;;;;3.70;1.60;;;;;;;1.48;62.36;102289.14;106434;1262;71141;-79
2023/01/28 11:08:14;;;;;;;3.70;1.80;;;;;;;1.45;63.01;102290.14;106316;1259;61103;-78
2023/01/28 11:10:41;;;;;;;4.00;1.60;;;;;;;1.47;63.40;102289.36;106288;1259;61175;-77
2023/01/28 11:13:20;;;;;;;5.50;2.00;;;;;;;1.50;63.89;102289.21;106401;1259;72489;-79
2023/01/28 11:16:05;;;;;;;4.10;1.70;;;;;;;1.56;64.22;102286.27;106614;1258;69969;-79
2023/01/28 11:18:39;;;;;;;2.70;1.40;;;;;;;1.64;64.15;102284.49;108016;1258;72625;-79
2023/01/28 11:21:16;;;;;;;4.50;1.60;;;;;;;1.57;63.06;102277.55;108735;1258;60971;-78
2023/01/28 11:23:53;;;;;;;3.90;1.60;;;;;;;1.57;63.12;102276.46;108893;1259;59135;-79
2023/01/28 11:26:28;;;;;;;4.10;1.50;;;;;;;1.61;63.55;102282.52;108781;1258;74010;-79
2023/01/28 11:28:55;;;;;;;5.30;1.80;;;;;;;1.71;63.67;102284.15;108749;1258;71290;-79
2023/01/28 11:31:23;;;;;;;3.80;1.80;;;;;;;1.73;63.13;102282.47;108844;1258;71499;-80
2023/01/28 11:34:01;;;;;;;3.30;1.80;;;;;;;1.73;62.86;102276.39;107164;1259;61336;-78
2023/01/28 11:36:33;;;;;;;2.60;1.60;;;;;;;1.72;62.78;102276.92;106875;1261;61125;-79
2023/01/28 11:39:06;;;;;;;5.40;1.70;;;;;;;1.71;62.89;102276.48;106562;1259;74145;-77
2023/01/28 11:41:36;;;;;;;4.90;1.90;;;;;;;1.68;63.19;102275.42;106441;1259;69748;-77
2023/01/28 11:44:23;;;;;;;2.90;1.70;;;;;;;1.60;63.24;102272.67;106332;1259;72794;-78
2023/01/28 11:47:03;;;;;;;4.20;1.80;;;;;;;1.59;62.99;102267.11;106423;1259;61519;-77
2023/01/28 11:49:54;;;;;;;2.70;1.90;;;;;;;1.54;62.89;102256.23;106189;1259;61344;-79
2023/01/28 11:52:32;;;;;;;4.30;1.80;;;;;;;1.57;62.65;102253.30;106800;1259;73461;-79
2023/01/28 11:55:21;;;;;;;4.10;2.00;;;;;;;1.66;62.82;102250.93;106317;1259;70881;-78
2023/01/28 11:57:48;;;;;;;4.30;2.20;;;;;;;1.70;62.69;102237.65;107625;1258;73655;-79
2023/01/28 12:00:51;;;;;;;3.40;1.70;;;;;;;1.80;62.91;102234.33;108860;1258;59715;-79
2023/01/28 12:03:40;;;;;;;5.20;1.70;;;;;;;1.91;61.95;102237.08;108831;1258;60089;-79
2023/01/28 12:06:19;;;;;;;4.20;2.00;;;;;;;1.99;61.93;102239.79;108751;1259;74893;-78
2023/01/28 12:09:05;;;;;;;3.00;1.80;;;;;;;2.09;60.60;102233.35;107532;1261;69757;-79
2023/01/28 12:12:12;;;;;;;3.70;1.50;;;;;;;2.15;60.20;102227.44;106785;1259;71270;-79